KAMN

Gratiot Community Airport

Alma, Michigan, USA
METAR KAMN 260356Z AUTO 21007KT 10SM CLR 19/17 A2979 RMK AO2 T01910172
Observed Flight Rules
May-26 @ 03:56 UTC (19 minutes ago) Visual Flight Rules
Wind Visibility Clouds
210° at 7 knots 10 miles
  • Clear skies
Temperatures Readings
Current 19°C / 66°F
Dewpoint 17°C / 63°F
Humidity 88%
Altimeter 29.79" Hg
Pressure 1009 hPa
Elevation 230
METAR KAMN 260356Z AUTO 21007KT 10SM CLR 19/17 A2979 RMK AO2 T01910172
Observed Flight Rules
May-26 @ 03:56 UTC
(19 minutes ago)
VFR
Wind Visibility
210° at 7 knots 10 miles
Clouds
  • Clear skies
Temperature Dewpoint
19°C / 66°F 17°C / 63°F
Humidity Altimeter Pressure
88% 29.79" Hg 1009 hPa